Terminal Aerodrome Forecast
Issued by NWS

Home | Current Version | Previous Version | Text Only | Print | Product List | Glossary On
Versions: 1 2 3 4 5 6 7 8 9 10 11 12 13
000
FTUS46 KSGX 311700
TAFSNA
TAF
KSNA 311722Z 3118/0118 22005KT P6SM FEW015
     FM312000 22008KT P6SM SCT200
     FM010200 VRB05KT P6SM FEW010 SCT200
     FM011200 VRB03KT P6SM BKN009
     FM011500 VRB03KT P6SM SCT012 SCT200=

USA.gov is the U.S. government's official web portal to all federal, state and local government web resources and services.